createdAt,value
2023-04-11T00:00:36.398Z,46.71
2023-04-11T00:03:03.387Z,46.69
2023-04-11T00:05:30.917Z,46.74
2023-04-11T00:07:57.761Z,46.69
2023-04-11T00:10:24.843Z,46.65
2023-04-11T00:12:53.322Z,46.41
2023-04-11T00:15:20.020Z,46.39
2023-04-11T00:17:46.629Z,46.34
2023-04-11T00:20:13.225Z,46.28
2023-04-11T00:22:39.827Z,46.25
2023-04-11T00:25:07.127Z,46.18
2023-04-11T00:27:33.738Z,46.09
2023-04-11T00:30:00.558Z,46.08
2023-04-11T00:32:27.437Z,46.15
2023-04-11T00:34:54.222Z,46.06
2023-04-11T00:37:20.897Z,45.95
2023-04-11T00:39:50.675Z,45.91
2023-04-11T00:42:17.323Z,46.04
2023-04-11T00:44:45.376Z,46.04
2023-04-11T00:47:12.538Z,46.18
2023-04-11T00:49:40.945Z,46.12
2023-04-11T00:52:08.315Z,46.09
2023-04-11T00:54:35.314Z,46.03
2023-04-11T00:57:04.200Z,46.08
2023-04-11T00:59:32.371Z,46.21
2023-04-11T01:04:47.091Z,46.19
2023-04-11T01:07:14.409Z,46.12
2023-04-11T01:09:41.965Z,46.10
2023-04-11T01:12:09.475Z,46.08
2023-04-11T01:14:36.085Z,46.12
2023-04-11T01:17:02.854Z,46.08
2023-04-11T01:19:30.974Z,46.17
2023-04-11T01:21:58.720Z,46.16
2023-04-11T01:24:25.572Z,46.08
2023-04-11T01:26:52.276Z,46.10
2023-04-11T01:29:20.243Z,46.25
2023-04-11T01:31:46.850Z,46.09
2023-04-11T01:34:15.764Z,46.07
2023-04-11T01:36:42.776Z,46.13
2023-04-11T01:39:10.370Z,46.24
2023-04-11T01:41:37.755Z,46.36
2023-04-11T01:44:04.742Z,46.47
2023-04-11T01:46:31.978Z,46.53
2023-04-11T01:48:59.948Z,47.00
2023-04-11T01:51:26.617Z,47.09
2023-04-11T01:53:53.294Z,47.12
2023-04-11T01:56:20.008Z,47.32
2023-04-11T01:58:46.865Z,47.46
2023-04-11T02:01:18.251Z,47.94
2023-04-11T02:03:45.486Z,47.89
2023-04-11T02:06:12.379Z,48.10
2023-04-11T02:08:39.073Z,48.20
2023-04-11T02:11:05.729Z,48.43
2023-04-11T02:13:32.372Z,48.19
2023-04-11T02:16:08.180Z,47.61
2023-04-11T02:18:36.253Z,47.96
2023-04-11T02:21:02.904Z,47.76
2023-04-11T02:23:29.554Z,47.83
2023-04-11T02:25:56.198Z,47.86
2023-04-11T02:28:22.854Z,47.80
2023-04-11T02:30:53.150Z,47.45
2023-04-11T02:33:19.971Z,47.43
2023-04-11T02:35:47.149Z,47.31
2023-04-11T02:38:14.314Z,47.21
2023-04-11T02:40:41.270Z,47.38
2023-04-11T02:43:07.907Z,47.28
2023-04-11T02:45:34.631Z,47.22
2023-04-11T02:48:02.396Z,47.26
2023-04-11T02:50:30.524Z,47.16
2023-04-11T02:52:57.258Z,47.19
2023-04-11T02:55:27.294Z,46.92
2023-04-11T02:57:53.914Z,46.92
2023-04-11T03:00:21.705Z,46.90
2023-04-11T03:02:53.729Z,46.92
2023-04-11T03:05:22.633Z,46.79
2023-04-11T03:07:52.518Z,47.06
2023-04-11T03:10:19.820Z,46.98
2023-04-11T03:12:46.477Z,46.75
2023-04-11T03:15:13.473Z,46.72
2023-04-11T03:17:40.113Z,46.69
2023-04-11T03:20:09.508Z,46.73
2023-04-11T03:22:36.099Z,46.81
2023-04-11T03:25:03.199Z,46.58
2023-04-11T03:27:29.936Z,46.95
2023-04-11T03:30:00.259Z,47.12
2023-04-11T03:32:36.563Z,46.99
2023-04-11T03:35:03.324Z,46.82
2023-04-11T03:37:30.297Z,46.08
2023-04-11T03:39:56.906Z,46.70
2023-04-11T03:42:23.849Z,47.44
2023-04-11T03:44:55.905Z,47.25
2023-04-11T03:47:24.919Z,47.38
2023-04-11T03:49:51.780Z,47.48
2023-04-11T03:52:18.898Z,47.83
2023-04-11T03:54:48.021Z,48.08
2023-04-11T03:57:15.678Z,48.11
2023-04-11T03:59:42.344Z,48.60
2023-04-11T04:02:12.236Z,48.89
2023-04-11T04:04:46.501Z,48.99
2023-04-11T04:07:22.000Z,49.27
2023-04-11T04:09:51.109Z,49.24
2023-04-11T04:12:18.353Z,49.63
2023-04-11T04:15:04.776Z,49.25
2023-04-11T04:17:31.392Z,48.86
2023-04-11T04:19:59.145Z,48.79
2023-04-11T04:22:25.743Z,48.76
2023-04-11T04:24:55.614Z,48.85
2023-04-11T04:27:25.908Z,48.85
2023-04-11T04:30:01.126Z,48.91
2023-04-11T04:32:43.709Z,48.73
2023-04-11T04:35:12.715Z,48.58
2023-04-11T04:37:39.848Z,48.53
2023-04-11T04:40:32.583Z,48.38
2023-04-11T04:43:03.732Z,48.33
2023-04-11T04:45:38.918Z,48.52
2023-04-11T04:48:05.952Z,48.42
2023-04-11T04:50:32.775Z,48.48
2023-04-11T04:52:59.357Z,48.43
2023-04-11T04:55:26.024Z,48.18
2023-04-11T04:57:53.254Z,48.04
2023-04-11T05:00:21.795Z,47.47
2023-04-11T05:02:50.683Z,47.83
2023-04-11T05:05:17.572Z,48.57
2023-04-11T05:07:44.386Z,48.79
2023-04-11T05:10:11.157Z,49.18
2023-04-11T05:12:39.429Z,49.79
2023-04-11T05:15:10.508Z,50.41
2023-04-11T05:17:38.526Z,51.08
2023-04-11T05:20:06.752Z,51.37
2023-04-11T05:22:33.636Z,51.31
2023-04-11T05:25:00.732Z,51.23
2023-04-11T05:27:27.615Z,51.18
2023-04-11T05:29:54.627Z,50.49
2023-04-11T05:32:21.287Z,51.07
2023-04-11T05:34:54.309Z,51.11
2023-04-11T05:37:41.297Z,51.95
2023-04-11T05:40:08.603Z,52.28
2023-04-11T05:42:35.188Z,52.05
2023-04-11T05:45:01.856Z,52.15
2023-04-11T05:47:28.471Z,52.31
2023-04-11T05:49:55.075Z,52.46
2023-04-11T05:52:21.671Z,52.61
2023-04-11T05:54:48.359Z,52.75
2023-04-11T05:57:15.024Z,52.95
2023-04-11T05:59:41.653Z,53.34
2023-04-11T06:02:08.677Z,53.42
2023-04-11T06:04:35.555Z,53.33
2023-04-11T06:07:02.398Z,53.60
2023-04-11T06:09:29.502Z,53.73
2023-04-11T06:11:56.144Z,53.84
2023-04-11T06:14:22.815Z,53.95
2023-04-11T06:16:49.411Z,53.85
2023-04-11T06:19:17.250Z,54.79
2023-04-11T06:21:43.990Z,54.62
2023-04-11T06:24:11.125Z,54.70
2023-04-11T06:26:37.774Z,54.72
2023-04-11T06:29:05.870Z,54.67
2023-04-11T06:31:32.913Z,55.28
2023-04-11T06:34:01.149Z,54.64
2023-04-11T06:36:27.746Z,54.75
2023-04-11T06:38:54.309Z,54.26
2023-04-11T06:41:21.042Z,54.30
2023-04-11T06:43:47.587Z,54.49
2023-04-11T06:46:14.215Z,54.55
2023-04-11T06:48:40.940Z,54.28
2023-04-11T06:51:07.562Z,54.18
2023-04-11T06:53:34.164Z,54.22
2023-04-11T06:56:00.731Z,54.52
2023-04-11T06:58:27.355Z,54.51
2023-04-11T07:00:53.919Z,54.58
2023-04-11T07:03:20.551Z,54.78
2023-04-11T07:05:47.195Z,55.35
2023-04-11T07:08:13.951Z,56.17
2023-04-11T07:10:40.569Z,57.07
2023-04-11T07:13:07.126Z,58.34
2023-04-11T07:15:33.746Z,58.69
2023-04-11T07:18:00.386Z,59.21
2023-04-11T07:20:27.189Z,60.33
2023-04-11T07:22:54.031Z,60.63
2023-04-11T07:25:20.704Z,60.78
2023-04-11T07:27:47.423Z,61.23
2023-04-11T07:30:14.523Z,61.70
2023-04-11T07:32:41.127Z,62.73
2023-04-11T07:35:08.075Z,62.58
2023-04-11T07:37:34.634Z,63.52
2023-04-11T07:40:01.349Z,64.26
2023-04-11T07:42:28.040Z,64.85
2023-04-11T07:44:54.717Z,64.86
2023-04-11T07:47:21.314Z,65.38
2023-04-11T07:49:47.887Z,65.84
2023-04-11T07:52:14.632Z,65.92
2023-04-11T07:54:41.320Z,66.05
2023-04-11T07:57:07.897Z,66.13
2023-04-11T07:59:34.460Z,66.39
2023-04-11T08:02:01.825Z,66.86
2023-04-11T08:04:33.024Z,66.81
2023-04-11T08:07:00.016Z,67.19
2023-04-11T08:09:26.731Z,67.58
2023-04-11T08:11:53.826Z,67.68
2023-04-11T08:14:20.568Z,67.83
2023-04-11T08:16:47.232Z,67.98
2023-04-11T08:19:13.907Z,67.90
2023-04-11T08:21:40.658Z,67.81
2023-04-11T08:24:08.108Z,67.48
2023-04-11T08:26:34.976Z,67.74
2023-04-11T08:29:01.656Z,67.82
2023-04-11T08:31:28.509Z,67.86
2023-04-11T08:33:56.925Z,67.29
2023-04-11T08:36:25.079Z,67.11
2023-04-11T08:38:51.678Z,66.28
2023-04-11T08:41:18.420Z,65.67
2023-04-11T08:43:45.155Z,66.22
2023-04-11T08:46:11.769Z,66.31
2023-04-11T08:48:38.756Z,65.94
2023-04-11T08:51:05.797Z,66.50
2023-04-11T08:53:36.215Z,66.63
2023-04-11T08:56:03.741Z,65.11
2023-04-11T08:58:30.432Z,65.70
2023-04-11T09:00:57.055Z,66.27
2023-04-11T09:03:23.823Z,66.46
2023-04-11T09:05:50.671Z,66.64
2023-04-11T09:08:17.688Z,66.02
2023-04-11T09:10:45.766Z,66.42
2023-04-11T09:13:25.761Z,64.67
2023-04-11T09:16:09.555Z,64.43
2023-04-11T09:18:38.405Z,65.29
2023-04-11T09:21:13.689Z,65.17
2023-04-11T09:23:40.628Z,65.77
2023-04-11T09:26:08.905Z,65.39
2023-04-11T09:28:45.653Z,64.06
2023-04-11T09:31:12.540Z,64.84
2023-04-11T09:33:39.334Z,64.73
2023-04-11T09:36:19.292Z,63.56
2023-04-11T09:38:46.485Z,64.01
2023-04-11T09:41:13.668Z,64.37
2023-04-11T09:43:51.283Z,62.32
2023-04-11T09:46:18.898Z,64.08
2023-04-11T09:49:01.672Z,63.91
2023-04-11T09:51:36.630Z,63.84
2023-04-11T09:54:16.185Z,64.13
2023-04-11T09:56:42.997Z,64.76
2023-04-11T09:59:09.856Z,64.28
2023-04-11T10:01:38.976Z,63.64
2023-04-11T10:04:05.671Z,64.04
2023-04-11T10:07:12.698Z,60.39
2023-04-11T10:09:41.786Z,62.68
2023-04-11T10:12:08.460Z,62.05
2023-04-11T10:14:42.222Z,58.27
2023-04-11T10:17:12.007Z,59.42
2023-04-11T10:19:38.628Z,60.57
2023-04-11T10:22:05.529Z,61.27
2023-04-11T10:24:32.139Z,62.41
2023-04-11T10:27:03.549Z,62.75
2023-04-11T10:29:30.065Z,63.93
2023-04-11T10:32:22.456Z,62.62
2023-04-11T10:34:52.272Z,63.67
2023-04-11T10:37:30.944Z,63.88
2023-04-11T10:39:57.535Z,64.27
2023-04-11T10:42:32.464Z,63.04
2023-04-11T10:45:23.637Z,64.02
2023-04-11T10:47:56.325Z,63.92
2023-04-11T10:50:25.770Z,63.94
2023-04-11T10:52:53.443Z,64.81
2023-04-11T10:55:20.724Z,65.14
2023-04-11T10:58:12.732Z,62.66
2023-04-11T11:01:21.241Z,63.17
2023-04-11T11:03:58.686Z,66.14
2023-04-11T11:06:25.780Z,66.70
2023-04-11T11:08:52.574Z,67.09
2023-04-11T11:11:19.299Z,66.32
2023-04-11T11:13:49.967Z,66.15
2023-04-11T11:16:21.975Z,65.27
2023-04-11T11:18:51.260Z,65.02
2023-04-11T11:21:26.727Z,65.44
2023-04-11T11:24:01.632Z,61.68
2023-04-11T11:26:42.155Z,63.22
2023-04-11T11:29:10.018Z,64.82
2023-04-11T11:31:46.446Z,62.99
2023-04-11T11:34:23.679Z,64.28
2023-04-11T11:36:51.371Z,65.44
2023-04-11T11:39:20.420Z,65.71
2023-04-11T11:41:48.788Z,66.29
2023-04-11T11:44:22.582Z,62.42
2023-04-11T11:47:09.056Z,63.00
2023-04-11T11:49:49.220Z,64.07
2023-04-11T11:52:35.104Z,61.72
2023-04-11T11:55:03.193Z,58.65
2023-04-11T11:57:29.813Z,57.84
2023-04-11T11:59:57.274Z,58.69
2023-04-11T12:02:25.144Z,57.39
2023-04-11T12:05:03.040Z,56.46
2023-04-11T12:07:37.023Z,58.49
2023-04-11T12:10:07.984Z,60.92
2023-04-11T12:12:53.737Z,58.89
2023-04-11T12:15:23.420Z,61.12
2023-04-11T12:17:52.124Z,61.47
2023-04-11T12:20:26.555Z,56.87
2023-04-11T12:25:40.713Z,62.44
2023-04-11T12:28:08.895Z,63.17
2023-04-11T12:30:35.557Z,58.25
2023-04-11T12:33:02.259Z,62.52
2023-04-11T12:35:29.711Z,61.17
2023-04-11T12:37:56.762Z,61.12
2023-04-11T12:40:24.335Z,58.98
2023-04-11T12:42:57.005Z,60.65
2023-04-11T12:45:24.906Z,60.37
2023-04-11T12:47:51.709Z,61.17
2023-04-11T12:50:18.411Z,60.72
2023-04-11T12:52:45.220Z,60.08
2023-04-11T12:55:13.425Z,59.74
2023-04-11T12:57:40.483Z,58.78
2023-04-11T13:00:07.700Z,58.30
2023-04-11T13:02:42.123Z,59.42
2023-04-11T13:05:11.421Z,59.64
2023-04-11T13:07:38.238Z,59.57
2023-04-11T13:10:08.958Z,57.78
2023-04-11T13:12:35.643Z,57.91
2023-04-11T13:15:02.398Z,56.56
2023-04-11T13:17:29.002Z,57.20
2023-04-11T13:19:55.694Z,57.36
2023-04-11T13:22:22.333Z,56.86
2023-04-11T13:24:48.994Z,57.29
2023-04-11T13:27:15.560Z,57.05
2023-04-11T13:29:42.202Z,58.13
2023-04-11T13:32:08.821Z,57.98
2023-04-11T13:34:35.523Z,57.59
2023-04-11T13:37:02.095Z,56.48
2023-04-11T13:39:28.739Z,55.05
2023-04-11T13:41:55.365Z,54.59
2023-04-11T13:44:22.063Z,55.07
2023-04-11T13:46:48.946Z,55.86
2023-04-11T13:49:15.610Z,55.68
2023-04-11T13:51:42.318Z,55.27
2023-04-11T13:54:08.992Z,55.45
2023-04-11T13:56:36.449Z,56.06
2023-04-11T13:59:03.706Z,53.90
2023-04-11T14:01:30.444Z,57.36
2023-04-11T14:03:57.425Z,56.82
2023-04-11T14:06:24.409Z,56.45
2023-04-11T14:08:51.107Z,56.74
2023-04-11T14:11:17.865Z,56.49
2023-04-11T14:13:44.480Z,56.62
2023-04-11T14:16:11.184Z,54.93
2023-04-11T14:18:37.767Z,54.60
2023-04-11T14:21:07.674Z,55.73
2023-04-11T14:23:34.605Z,55.57
2023-04-11T14:26:01.218Z,54.92
2023-04-11T14:28:27.937Z,56.12
2023-04-11T14:30:56.062Z,55.47
2023-04-11T14:33:23.160Z,54.39
2023-04-11T14:35:51.014Z,53.89
2023-04-11T14:38:17.820Z,54.63
2023-04-11T14:40:44.672Z,53.74
2023-04-11T14:43:11.391Z,52.06
2023-04-11T14:45:38.145Z,53.84
2023-04-11T14:48:05.418Z,53.68
2023-04-11T14:50:32.174Z,53.41
2023-04-11T14:52:58.966Z,53.38
2023-04-11T14:55:25.577Z,53.98
2023-04-11T14:57:54.821Z,52.50
2023-04-11T15:00:22.079Z,53.33
2023-04-11T15:02:53.070Z,53.33
2023-04-11T15:05:20.426Z,53.28
2023-04-11T15:07:48.132Z,52.21
2023-04-11T15:10:16.542Z,51.91
2023-04-11T15:12:43.299Z,50.77
2023-04-11T15:15:10.384Z,51.71
2023-04-11T15:17:45.298Z,50.87
2023-04-11T15:20:12.695Z,51.93
2023-04-11T15:22:41.474Z,51.94
2023-04-11T15:25:11.913Z,52.45
2023-04-11T15:27:38.947Z,52.12
2023-04-11T15:30:06.612Z,51.32
2023-04-11T15:32:33.554Z,52.67
2023-04-11T15:35:00.235Z,51.43
2023-04-11T15:37:26.880Z,52.25
2023-04-11T15:39:53.620Z,52.45
2023-04-11T15:42:20.218Z,51.94
2023-04-11T15:44:46.864Z,52.29
2023-04-11T15:47:13.729Z,51.78
2023-04-11T15:49:40.326Z,48.89
2023-04-11T15:52:07.105Z,49.93
2023-04-11T15:54:33.722Z,49.56
2023-04-11T15:57:00.557Z,49.77
2023-04-11T15:59:27.261Z,49.82
2023-04-11T16:01:53.932Z,50.34
2023-04-11T16:04:20.700Z,50.93
2023-04-11T16:06:47.307Z,51.14
2023-04-11T16:09:13.957Z,52.10
2023-04-11T16:11:40.839Z,49.21
2023-04-11T16:14:07.498Z,51.88
2023-04-11T16:16:34.202Z,51.05
2023-04-11T16:19:00.787Z,49.08
2023-04-11T16:21:27.501Z,48.86
2023-04-11T16:23:54.435Z,48.18
2023-04-11T16:26:21.316Z,48.36
2023-04-11T16:28:48.641Z,49.00
2023-04-11T16:31:15.372Z,48.02
2023-04-11T16:33:41.916Z,48.72
2023-04-11T16:36:08.878Z,47.95
2023-04-11T16:38:35.497Z,47.34
2023-04-11T16:41:02.068Z,48.02
2023-04-11T16:43:28.777Z,48.24
2023-04-11T16:45:55.437Z,47.79
2023-04-11T16:48:22.100Z,46.80
2023-04-11T16:50:48.901Z,48.34
2023-04-11T16:53:15.541Z,48.76
2023-04-11T16:55:42.100Z,46.42
2023-04-11T16:58:08.906Z,48.30
2023-04-11T17:00:35.570Z,48.04
2023-04-11T17:03:02.399Z,49.00
2023-04-11T17:05:29.319Z,48.70
2023-04-11T17:07:57.155Z,48.10
2023-04-11T17:10:23.840Z,48.51
2023-04-11T17:12:50.718Z,48.58
2023-04-11T17:15:17.343Z,49.09
2023-04-11T17:17:44.008Z,49.54
2023-04-11T17:20:11.396Z,49.39
2023-04-11T17:22:37.965Z,49.88
2023-04-11T17:25:04.986Z,50.19
2023-04-11T17:27:32.703Z,50.92
2023-04-11T17:29:59.285Z,51.03
2023-04-11T17:32:25.846Z,51.40
2023-04-11T17:34:52.542Z,51.60
2023-04-11T17:37:19.115Z,51.82
2023-04-11T17:39:45.813Z,51.45
2023-04-11T17:42:12.370Z,51.88
2023-04-11T17:44:39.258Z,52.35
2023-04-11T17:47:07.034Z,52.56
2023-04-11T17:49:33.629Z,52.99
2023-04-11T17:52:00.391Z,53.05
2023-04-11T17:54:27.164Z,53.44
2023-04-11T17:56:53.868Z,53.86
2023-04-11T17:59:20.471Z,54.10
2023-04-11T18:01:47.280Z,54.46
2023-04-11T18:04:14.284Z,54.70
2023-04-11T18:06:42.434Z,54.63
2023-04-11T18:09:09.021Z,53.31
2023-04-11T18:11:35.674Z,55.24
2023-04-11T18:14:02.328Z,55.42
2023-04-11T18:16:29.266Z,55.51
2023-04-11T18:18:56.056Z,55.83
2023-04-11T18:21:22.745Z,56.07
2023-04-11T18:23:49.489Z,56.18
2023-04-11T18:26:16.189Z,56.32
2023-04-11T18:28:42.847Z,56.52
2023-04-11T18:31:10.000Z,56.66
2023-04-11T18:33:40.222Z,56.82
2023-04-11T18:36:09.011Z,56.90
2023-04-11T18:38:35.658Z,57.02
2023-04-11T18:41:05.700Z,57.14
2023-04-11T18:43:33.561Z,57.26
2023-04-11T18:46:01.608Z,57.23
2023-04-11T18:48:28.251Z,57.45
2023-04-11T18:51:01.118Z,56.52
2023-04-11T18:53:27.782Z,57.78
2023-04-11T18:55:54.373Z,57.61
2023-04-11T18:58:23.635Z,57.90
2023-04-11T19:00:52.123Z,58.05
2023-04-11T19:03:19.238Z,58.09
2023-04-11T19:05:46.716Z,57.97
2023-04-11T19:08:13.781Z,58.06
2023-04-11T19:10:40.421Z,58.34
2023-04-11T19:13:07.023Z,58.24
2023-04-11T19:15:33.773Z,58.36
2023-04-11T19:18:00.753Z,58.39
2023-04-11T19:20:27.512Z,58.39
2023-04-11T19:22:54.259Z,58.51
2023-04-11T19:25:20.861Z,58.71
2023-04-11T19:27:47.614Z,58.77
2023-04-11T19:30:14.372Z,58.72
2023-04-11T19:32:41.350Z,58.73
2023-04-11T19:35:09.740Z,58.80
2023-04-11T19:37:36.651Z,57.46
2023-04-11T19:40:07.036Z,58.40
2023-04-11T19:42:34.521Z,58.70
2023-04-11T19:45:01.125Z,58.81
2023-04-11T19:47:27.860Z,59.13
2023-04-11T19:49:54.604Z,59.24
2023-04-11T19:52:21.211Z,59.33
2023-04-11T19:54:47.895Z,59.47
2023-04-11T19:57:14.475Z,59.25
2023-04-11T19:59:41.058Z,59.41
2023-04-11T20:02:07.972Z,59.26
2023-04-11T20:04:34.603Z,59.33
2023-04-11T20:07:01.207Z,59.40
2023-04-11T20:09:27.796Z,59.45
2023-04-11T20:11:54.887Z,59.38
2023-04-11T20:14:24.417Z,59.56
2023-04-11T20:16:51.160Z,59.63
2023-04-11T20:19:17.841Z,59.70
2023-04-11T20:21:44.409Z,59.69
2023-04-11T20:24:10.950Z,59.89
2023-04-11T20:26:37.984Z,59.98
2023-04-11T20:29:04.548Z,59.91
2023-04-11T20:31:31.264Z,59.97
2023-04-11T20:33:58.128Z,60.17
2023-04-11T20:36:25.414Z,60.23
2023-04-11T20:38:52.025Z,60.17
2023-04-11T20:41:18.575Z,60.23
2023-04-11T20:43:45.460Z,60.18
2023-04-11T20:46:12.071Z,60.21
2023-04-11T20:48:42.430Z,60.44
2023-04-11T20:51:09.456Z,60.31
2023-04-11T20:53:36.278Z,60.47
2023-04-11T20:56:04.109Z,60.38
2023-04-11T20:58:30.773Z,60.64
2023-04-11T21:00:57.414Z,60.58
2023-04-11T21:03:24.095Z,60.65
2023-04-11T21:05:50.878Z,60.86
2023-04-11T21:08:17.459Z,60.82
2023-04-11T21:10:44.195Z,60.70
2023-04-11T21:13:11.938Z,60.85
2023-04-11T21:15:38.663Z,60.94
2023-04-11T21:18:07.406Z,61.10
2023-04-11T21:20:34.353Z,61.17
2023-04-11T21:23:01.100Z,61.39
2023-04-11T21:25:27.639Z,61.52
2023-04-11T21:27:54.358Z,61.53
2023-04-11T21:30:20.999Z,61.68
2023-04-11T21:32:47.671Z,61.77
2023-04-11T21:35:14.406Z,61.76
2023-04-11T21:37:40.999Z,61.77
2023-04-11T21:40:08.368Z,61.73
2023-04-11T21:42:35.116Z,61.53
2023-04-11T21:45:01.708Z,61.44
2023-04-11T21:47:28.341Z,61.13
2023-04-11T21:49:54.929Z,61.13
2023-04-11T21:52:21.548Z,60.97
2023-04-11T21:54:48.281Z,60.99
2023-04-11T21:57:14.932Z,61.16
2023-04-11T21:59:41.481Z,61.02
2023-04-11T22:02:08.320Z,61.09
2023-04-11T22:04:41.410Z,61.05
2023-04-11T22:07:14.318Z,61.17
2023-04-11T22:09:41.003Z,61.19
2023-04-11T22:12:07.651Z,61.24
2023-04-11T22:14:34.279Z,61.29
2023-04-11T22:17:00.864Z,61.38
2023-04-11T22:19:27.530Z,61.44
2023-04-11T22:21:54.088Z,61.36
2023-04-11T22:24:20.707Z,61.49
2023-04-11T22:26:47.244Z,61.58
2023-04-11T22:29:13.886Z,61.51
2023-04-11T22:31:40.641Z,61.61
2023-04-11T22:34:07.212Z,61.80
2023-04-11T22:36:33.896Z,61.79
2023-04-11T22:39:00.562Z,61.74
2023-04-11T22:41:27.207Z,61.80
2023-04-11T22:43:53.937Z,61.85
2023-04-11T22:46:20.503Z,62.03
2023-04-11T22:48:47.215Z,62.00
2023-04-11T22:51:13.860Z,61.93
2023-04-11T22:53:40.505Z,62.13
2023-04-11T22:56:08.539Z,61.89
2023-04-11T22:58:35.388Z,61.86
2023-04-11T23:01:02.094Z,61.92
2023-04-11T23:03:28.697Z,62.17
2023-04-11T23:05:55.291Z,62.15
2023-04-11T23:08:21.947Z,62.14
2023-04-11T23:10:48.599Z,62.24
2023-04-11T23:13:15.280Z,62.34
2023-04-11T23:15:42.837Z,62.50
2023-04-11T23:18:09.531Z,62.61
2023-04-11T23:20:36.194Z,62.70
2023-04-11T23:23:02.947Z,62.68
2023-04-11T23:25:29.652Z,62.60
2023-04-11T23:27:56.222Z,62.58
2023-04-11T23:30:22.972Z,62.77
2023-04-11T23:32:49.649Z,62.73
2023-04-11T23:35:16.383Z,62.83
2023-04-11T23:37:43.267Z,62.87
2023-04-11T23:40:10.469Z,63.00
2023-04-11T23:42:38.362Z,62.94
2023-04-11T23:45:06.503Z,62.88
2023-04-11T23:47:33.561Z,61.62
2023-04-11T23:50:00.218Z,62.98
2023-04-11T23:52:26.899Z,62.93
2023-04-11T23:54:53.649Z,62.95
2023-04-11T23:57:20.202Z,63.12
2023-04-11T23:59:47.115Z,63.18
